< < Back
Terminal Aerodrome Forecast


Current Version              Previous Versions:   1  2  3  4  5  6  7  8  9  

Terminal Aerodrome Forecast

877
FTUS42 KMLB 032333
TAFDAB
TAF
KDAB 032333Z 0400/0424 VRB02KT P6SM FEW040 SCT250
     FM041300 33005KT P6SM SCT030 SCT250
     FM041800 05008KT P6SM VCTS SCT035CB SCT250=

Latest METAR

467
SAUS80 KWBC 050300 RRA
MTRDAB
METAR KDAB 050253Z 28003KT 10SM BKN200 24/23 A3000 RMK AO2 SLP157
T02440233 51012


USA.gov is the U.S. government's official web portal to all federal, state and local government web resources and services.